sensor_id;sensor_type;location;lat;lon;timestamp;P1;durP1;ratioP1;P2;durP2;ratioP2
20928;SDS011;21895;47.072;15.132;2023-04-19T00:01:09;4.47;;;2.73;;
20928;SDS011;21895;47.072;15.132;2023-04-19T00:03:35;5.53;;;3.30;;
20928;SDS011;21895;47.072;15.132;2023-04-19T00:06:05;6.00;;;3.00;;
20928;SDS011;21895;47.072;15.132;2023-04-19T00:08:33;5.20;;;2.80;;
20928;SDS011;21895;47.072;15.132;2023-04-19T00:10:59;5.73;;;3.10;;
20928;SDS011;21895;47.072;15.132;2023-04-19T00:13:26;5.33;;;3.00;;
20928;SDS011;21895;47.072;15.132;2023-04-19T00:15:52;6.03;;;3.00;;
20928;SDS011;21895;47.072;15.132;2023-04-19T00:18:19;5.30;;;3.07;;
20928;SDS011;21895;47.072;15.132;2023-04-19T00:20:45;6.73;;;3.60;;
20928;SDS011;21895;47.072;15.132;2023-04-19T00:23:13;7.20;;;3.97;;
20928;SDS011;21895;47.072;15.132;2023-04-19T00:25:39;6.93;;;3.80;;
20928;SDS011;21895;47.072;15.132;2023-04-19T00:28:06;6.83;;;3.70;;
20928;SDS011;21895;47.072;15.132;2023-04-19T00:30:33;12.13;;;3.27;;
20928;SDS011;21895;47.072;15.132;2023-04-19T00:32:59;8.60;;;2.80;;
20928;SDS011;21895;47.072;15.132;2023-04-19T00:35:26;6.47;;;3.50;;
20928;SDS011;21895;47.072;15.132;2023-04-19T00:37:52;5.53;;;2.60;;
20928;SDS011;21895;47.072;15.132;2023-04-19T00:40:19;4.73;;;3.07;;
20928;SDS011;21895;47.072;15.132;2023-04-19T00:42:45;8.10;;;3.30;;
20928;SDS011;21895;47.072;15.132;2023-04-19T00:45:12;4.97;;;3.10;;
20928;SDS011;21895;47.072;15.132;2023-04-19T00:47:39;4.83;;;2.83;;
20928;SDS011;21895;47.072;15.132;2023-04-19T00:50:06;10.57;;;2.60;;
20928;SDS011;21895;47.072;15.132;2023-04-19T00:52:33;5.53;;;2.57;;
20928;SDS011;21895;47.072;15.132;2023-04-19T00:55:01;4.70;;;2.90;;
20928;SDS011;21895;47.072;15.132;2023-04-19T00:57:29;4.20;;;2.63;;
20928;SDS011;21895;47.072;15.132;2023-04-19T00:59:56;5.03;;;2.87;;
20928;SDS011;21895;47.072;15.132;2023-04-19T01:02:23;5.27;;;2.90;;
20928;SDS011;21895;47.072;15.132;2023-04-19T01:04:50;8.60;;;3.13;;
20928;SDS011;21895;47.072;15.132;2023-04-19T01:07:17;4.20;;;3.17;;
20928;SDS011;21895;47.072;15.132;2023-04-19T01:09:45;8.07;;;2.60;;
20928;SDS011;21895;47.072;15.132;2023-04-19T01:12:12;4.23;;;2.77;;
20928;SDS011;21895;47.072;15.132;2023-04-19T01:14:38;8.83;;;2.70;;
20928;SDS011;21895;47.072;15.132;2023-04-19T01:17:06;3.97;;;2.50;;
20928;SDS011;21895;47.072;15.132;2023-04-19T01:19:33;4.07;;;2.70;;
20928;SDS011;21895;47.072;15.132;2023-04-19T01:22:01;7.67;;;2.53;;
20928;SDS011;21895;47.072;15.132;2023-04-19T01:24:29;3.10;;;2.43;;
20928;SDS011;21895;47.072;15.132;2023-04-19T01:26:56;5.53;;;2.83;;
20928;SDS011;21895;47.072;15.132;2023-04-19T01:29:23;5.00;;;2.67;;
20928;SDS011;21895;47.072;15.132;2023-04-19T01:31:49;4.10;;;2.33;;
20928;SDS011;21895;47.072;15.132;2023-04-19T01:34:20;3.43;;;2.30;;
20928;SDS011;21895;47.072;15.132;2023-04-19T01:36:50;4.60;;;2.60;;
20928;SDS011;21895;47.072;15.132;2023-04-19T01:39:16;3.90;;;2.30;;
20928;SDS011;21895;47.072;15.132;2023-04-19T01:41:43;7.47;;;2.80;;
20928;SDS011;21895;47.072;15.132;2023-04-19T01:44:09;4.27;;;2.43;;
20928;SDS011;21895;47.072;15.132;2023-04-19T01:46:36;4.57;;;2.60;;
20928;SDS011;21895;47.072;15.132;2023-04-19T01:49:03;4.47;;;2.53;;
20928;SDS011;21895;47.072;15.132;2023-04-19T01:51:30;4.43;;;2.63;;
20928;SDS011;21895;47.072;15.132;2023-04-19T01:53:56;4.37;;;2.50;;
20928;SDS011;21895;47.072;15.132;2023-04-19T01:56:23;3.70;;;2.80;;
20928;SDS011;21895;47.072;15.132;2023-04-19T01:58:49;5.93;;;2.53;;
20928;SDS011;21895;47.072;15.132;2023-04-19T02:01:16;3.30;;;2.30;;
20928;SDS011;21895;47.072;15.132;2023-04-19T02:03:42;4.70;;;2.30;;
20928;SDS011;21895;47.072;15.132;2023-04-19T02:06:10;4.10;;;2.33;;
20928;SDS011;21895;47.072;15.132;2023-04-19T02:08:38;3.10;;;1.97;;
20928;SDS011;21895;47.072;15.132;2023-04-19T02:11:09;3.73;;;1.60;;
20928;SDS011;21895;47.072;15.132;2023-04-19T02:13:41;3.20;;;2.20;;
20928;SDS011;21895;47.072;15.132;2023-04-19T02:16:08;4.00;;;2.30;;
20928;SDS011;21895;47.072;15.132;2023-04-19T02:18:35;3.40;;;2.40;;
20928;SDS011;21895;47.072;15.132;2023-04-19T02:21:03;4.10;;;2.53;;
20928;SDS011;21895;47.072;15.132;2023-04-19T02:23:31;4.03;;;2.60;;
20928;SDS011;21895;47.072;15.132;2023-04-19T02:25:57;3.57;;;2.70;;
20928;SDS011;21895;47.072;15.132;2023-04-19T02:28:25;6.60;;;3.10;;
20928;SDS011;21895;47.072;15.132;2023-04-19T02:30:52;3.30;;;2.43;;
20928;SDS011;21895;47.072;15.132;2023-04-19T02:33:18;5.77;;;2.70;;
20928;SDS011;21895;47.072;15.132;2023-04-19T02:35:47;4.60;;;2.47;;
20928;SDS011;21895;47.072;15.132;2023-04-19T02:38:14;4.20;;;2.53;;
20928;SDS011;21895;47.072;15.132;2023-04-19T02:40:40;5.07;;;2.90;;
20928;SDS011;21895;47.072;15.132;2023-04-19T02:43:07;5.13;;;2.33;;
20928;SDS011;21895;47.072;15.132;2023-04-19T02:45:33;4.00;;;2.27;;
20928;SDS011;21895;47.072;15.132;2023-04-19T02:48:01;5.47;;;2.00;;
20928;SDS011;21895;47.072;15.132;2023-04-19T02:50:28;2.40;;;1.80;;
20928;SDS011;21895;47.072;15.132;2023-04-19T02:52:56;4.37;;;2.20;;
20928;SDS011;21895;47.072;15.132;2023-04-19T02:55:23;3.00;;;1.80;;
20928;SDS011;21895;47.072;15.132;2023-04-19T02:57:49;2.63;;;1.73;;
20928;SDS011;21895;47.072;15.132;2023-04-19T03:00:17;6.20;;;1.90;;
20928;SDS011;21895;47.072;15.132;2023-04-19T03:02:43;3.63;;;2.00;;
20928;SDS011;21895;47.072;15.132;2023-04-19T03:05:10;3.80;;;2.17;;
20928;SDS011;21895;47.072;15.132;2023-04-19T03:07:37;3.10;;;2.00;;
20928;SDS011;21895;47.072;15.132;2023-04-19T03:10:03;2.90;;;1.80;;
20928;SDS011;21895;47.072;15.132;2023-04-19T03:12:31;6.00;;;2.00;;
20928;SDS011;21895;47.072;15.132;2023-04-19T03:14:57;3.97;;;1.93;;
20928;SDS011;21895;47.072;15.132;2023-04-19T03:17:24;4.17;;;1.97;;
20928;SDS011;21895;47.072;15.132;2023-04-19T03:19:50;4.40;;;1.90;;
20928;SDS011;21895;47.072;15.132;2023-04-19T03:22:17;2.90;;;1.83;;
20928;SDS011;21895;47.072;15.132;2023-04-19T03:24:46;2.53;;;1.70;;
20928;SDS011;21895;47.072;15.132;2023-04-19T03:27:12;2.37;;;1.67;;
20928;SDS011;21895;47.072;15.132;2023-04-19T03:29:38;2.13;;;1.60;;
20928;SDS011;21895;47.072;15.132;2023-04-19T03:32:05;2.50;;;1.70;;
20928;SDS011;21895;47.072;15.132;2023-04-19T03:34:32;2.37;;;1.73;;
20928;SDS011;21895;47.072;15.132;2023-04-19T03:36:58;5.00;;;1.70;;
20928;SDS011;21895;47.072;15.132;2023-04-19T03:39:25;6.00;;;2.00;;
20928;SDS011;21895;47.072;15.132;2023-04-19T03:41:52;3.93;;;1.40;;
20928;SDS011;21895;47.072;15.132;2023-04-19T03:44:19;3.53;;;1.70;;
20928;SDS011;21895;47.072;15.132;2023-04-19T03:46:45;7.57;;;1.60;;
20928;SDS011;21895;47.072;15.132;2023-04-19T03:49:13;1.60;;;1.50;;
20928;SDS011;21895;47.072;15.132;2023-04-19T03:51:39;5.40;;;2.10;;
20928;SDS011;21895;47.072;15.132;2023-04-19T03:54:06;8.23;;;2.10;;
20928;SDS011;21895;47.072;15.132;2023-04-19T03:56:32;4.93;;;1.90;;
20928;SDS011;21895;47.072;15.132;2023-04-19T03:58:59;2.20;;;1.53;;
20928;SDS011;21895;47.072;15.132;2023-04-19T04:01:25;2.80;;;1.60;;
20928;SDS011;21895;47.072;15.132;2023-04-19T04:03:52;2.30;;;1.50;;
20928;SDS011;21895;47.072;15.132;2023-04-19T04:06:22;2.33;;;1.77;;
20928;SDS011;21895;47.072;15.132;2023-04-19T04:08:49;3.77;;;2.53;;
20928;SDS011;21895;47.072;15.132;2023-04-19T04:11:15;3.73;;;2.57;;
20928;SDS011;21895;47.072;15.132;2023-04-19T04:13:42;4.70;;;1.60;;
20928;SDS011;21895;47.072;15.132;2023-04-19T04:16:10;3.47;;;1.63;;
20928;SDS011;21895;47.072;15.132;2023-04-19T04:18:37;1.73;;;1.23;;
20928;SDS011;21895;47.072;15.132;2023-04-19T04:21:04;3.93;;;1.57;;
20928;SDS011;21895;47.072;15.132;2023-04-19T04:23:30;4.80;;;1.40;;
20928;SDS011;21895;47.072;15.132;2023-04-19T04:25:58;2.23;;;1.50;;
20928;SDS011;21895;47.072;15.132;2023-04-19T04:28:25;21.40;;;3.87;;
20928;SDS011;21895;47.072;15.132;2023-04-19T04:30:54;14.07;;;2.50;;
20928;SDS011;21895;47.072;15.132;2023-04-19T04:33:24;50.87;;;2.27;;
20928;SDS011;21895;47.072;15.132;2023-04-19T04:35:53;17.70;;;1.37;;
20928;SDS011;21895;47.072;15.132;2023-04-19T04:38:20;11.03;;;1.23;;
20928;SDS011;21895;47.072;15.132;2023-04-19T04:40:51;1.23;;;1.13;;
20928;SDS011;21895;47.072;15.132;2023-04-19T04:43:22;24.50;;;1.37;;
20928;SDS011;21895;47.072;15.132;2023-04-19T04:45:53;7.80;;;1.40;;
20928;SDS011;21895;47.072;15.132;2023-04-19T04:48:22;2.13;;;1.40;;
20928;SDS011;21895;47.072;15.132;2023-04-19T04:50:49;4.27;;;1.80;;
20928;SDS011;21895;47.072;15.132;2023-04-19T04:53:16;4.37;;;2.87;;
20928;SDS011;21895;47.072;15.132;2023-04-19T04:55:42;6.40;;;2.83;;
20928;SDS011;21895;47.072;15.132;2023-04-19T04:58:09;5.37;;;2.80;;
20928;SDS011;21895;47.072;15.132;2023-04-19T05:00:35;7.37;;;2.77;;
20928;SDS011;21895;47.072;15.132;2023-04-19T05:03:02;4.00;;;2.40;;
20928;SDS011;21895;47.072;15.132;2023-04-19T05:05:29;3.93;;;2.20;;
20928;SDS011;21895;47.072;15.132;2023-04-19T05:07:55;6.77;;;2.60;;
20928;SDS011;21895;47.072;15.132;2023-04-19T05:10:22;7.70;;;3.27;;
20928;SDS011;21895;47.072;15.132;2023-04-19T05:12:49;6.87;;;3.23;;
20928;SDS011;21895;47.072;15.132;2023-04-19T05:15:15;10.13;;;3.73;;
20928;SDS011;21895;47.072;15.132;2023-04-19T05:17:42;6.40;;;2.43;;
20928;SDS011;21895;47.072;15.132;2023-04-19T05:20:08;3.97;;;2.20;;
20928;SDS011;21895;47.072;15.132;2023-04-19T05:22:35;6.97;;;2.90;;
20928;SDS011;21895;47.072;15.132;2023-04-19T05:25:02;5.37;;;3.47;;
20928;SDS011;21895;47.072;15.132;2023-04-19T05:27:29;7.10;;;4.20;;
20928;SDS011;21895;47.072;15.132;2023-04-19T05:29:56;5.13;;;3.07;;
20928;SDS011;21895;47.072;15.132;2023-04-19T05:32:22;2.83;;;2.00;;
20928;SDS011;21895;47.072;15.132;2023-04-19T05:34:49;4.80;;;2.00;;
20928;SDS011;21895;47.072;15.132;2023-04-19T05:37:16;9.47;;;2.10;;
20928;SDS011;21895;47.072;15.132;2023-04-19T05:39:42;7.83;;;2.07;;
20928;SDS011;21895;47.072;15.132;2023-04-19T05:42:10;6.50;;;2.00;;
20928;SDS011;21895;47.072;15.132;2023-04-19T05:44:36;2.33;;;1.80;;
20928;SDS011;21895;47.072;15.132;2023-04-19T05:47:03;2.60;;;2.00;;
20928;SDS011;21895;47.072;15.132;2023-04-19T05:49:30;3.27;;;1.73;;
20928;SDS011;21895;47.072;15.132;2023-04-19T05:51:57;5.10;;;1.80;;
20928;SDS011;21895;47.072;15.132;2023-04-19T05:54:23;4.00;;;2.00;;
20928;SDS011;21895;47.072;15.132;2023-04-19T05:56:50;2.67;;;2.10;;
20928;SDS011;21895;47.072;15.132;2023-04-19T05:59:16;4.27;;;2.00;;
20928;SDS011;21895;47.072;15.132;2023-04-19T06:01:43;7.10;;;2.37;;
20928;SDS011;21895;47.072;15.132;2023-04-19T06:04:09;3.00;;;1.87;;
20928;SDS011;21895;47.072;15.132;2023-04-19T06:06:36;9.33;;;3.03;;
20928;SDS011;21895;47.072;15.132;2023-04-19T06:09:03;9.50;;;4.30;;
20928;SDS011;21895;47.072;15.132;2023-04-19T06:11:31;8.77;;;3.20;;
20928;SDS011;21895;47.072;15.132;2023-04-19T06:14:12;11.53;;;3.17;;
20928;SDS011;21895;47.072;15.132;2023-04-19T06:16:39;8.90;;;3.60;;
20928;SDS011;21895;47.072;15.132;2023-04-19T06:19:06;5.47;;;2.87;;
20928;SDS011;21895;47.072;15.132;2023-04-19T06:21:33;3.67;;;2.63;;
20928;SDS011;21895;47.072;15.132;2023-04-19T06:24:00;7.20;;;2.77;;
20928;SDS011;21895;47.072;15.132;2023-04-19T06:26:26;4.73;;;2.30;;
20928;SDS011;21895;47.072;15.132;2023-04-19T06:28:53;3.03;;;2.33;;
20928;SDS011;21895;47.072;15.132;2023-04-19T06:31:20;6.80;;;2.90;;
20928;SDS011;21895;47.072;15.132;2023-04-19T06:33:46;7.70;;;3.20;;
20928;SDS011;21895;47.072;15.132;2023-04-19T06:36:13;7.47;;;3.77;;
20928;SDS011;21895;47.072;15.132;2023-04-19T06:38:39;8.20;;;3.43;;
20928;SDS011;21895;47.072;15.132;2023-04-19T06:41:06;12.30;;;3.57;;
20928;SDS011;21895;47.072;15.132;2023-04-19T06:43:33;23.77;;;7.20;;
20928;SDS011;21895;47.072;15.132;2023-04-19T06:46:00;13.80;;;5.10;;
20928;SDS011;21895;47.072;15.132;2023-04-19T06:48:29;20.90;;;5.80;;
20928;SDS011;21895;47.072;15.132;2023-04-19T06:50:55;15.67;;;5.90;;
20928;SDS011;21895;47.072;15.132;2023-04-19T06:53:22;14.37;;;5.40;;
20928;SDS011;21895;47.072;15.132;2023-04-19T06:55:52;16.30;;;4.60;;
20928;SDS011;21895;47.072;15.132;2023-04-19T06:58:31;12.80;;;4.20;;
20928;SDS011;21895;47.072;15.132;2023-04-19T07:01:00;5.77;;;3.27;;
20928;SDS011;21895;47.072;15.132;2023-04-19T07:03:28;4.03;;;2.70;;
20928;SDS011;21895;47.072;15.132;2023-04-19T07:05:55;10.37;;;3.30;;
20928;SDS011;21895;47.072;15.132;2023-04-19T07:08:22;8.23;;;3.07;;
20928;SDS011;21895;47.072;15.132;2023-04-19T07:10:57;3.57;;;2.40;;
20928;SDS011;21895;47.072;15.132;2023-04-19T07:13:24;2.23;;;1.70;;
20928;SDS011;21895;47.072;15.132;2023-04-19T07:15:50;2.63;;;2.03;;
20928;SDS011;21895;47.072;15.132;2023-04-19T07:18:17;7.20;;;2.47;;
20928;SDS011;21895;47.072;15.132;2023-04-19T07:20:43;11.87;;;2.67;;
20928;SDS011;21895;47.072;15.132;2023-04-19T07:23:13;11.63;;;2.40;;
20928;SDS011;21895;47.072;15.132;2023-04-19T07:25:40;2.83;;;2.07;;
20928;SDS011;21895;47.072;15.132;2023-04-19T07:28:06;5.07;;;2.20;;
20928;SDS011;21895;47.072;15.132;2023-04-19T07:30:34;4.17;;;1.90;;
20928;SDS011;21895;47.072;15.132;2023-04-19T07:33:01;2.63;;;1.87;;
20928;SDS011;21895;47.072;15.132;2023-04-19T07:35:29;2.97;;;2.00;;
20928;SDS011;21895;47.072;15.132;2023-04-19T07:37:56;2.80;;;1.70;;
20928;SDS011;21895;47.072;15.132;2023-04-19T07:40:22;6.18;;;2.08;;
20928;SDS011;21895;47.072;15.132;2023-04-19T07:42:49;6.20;;;2.30;;
20928;SDS011;21895;47.072;15.132;2023-04-19T07:45:15;5.90;;;2.33;;
20928;SDS011;21895;47.072;15.132;2023-04-19T07:47:42;5.77;;;2.07;;
20928;SDS011;21895;47.072;15.132;2023-04-19T07:50:09;8.40;;;2.57;;
20928;SDS011;21895;47.072;15.132;2023-04-19T07:52:36;9.52;;;2.60;;
20928;SDS011;21895;47.072;15.132;2023-04-19T07:55:04;10.07;;;2.67;;
20928;SDS011;21895;47.072;15.132;2023-04-19T07:57:33;6.87;;;2.17;;
20928;SDS011;21895;47.072;15.132;2023-04-19T08:00:00;15.90;;;2.65;;
20928;SDS011;21895;47.072;15.132;2023-04-19T08:02:26;5.40;;;2.50;;
20928;SDS011;21895;47.072;15.132;2023-04-19T08:04:53;4.45;;;2.00;;
20928;SDS011;21895;47.072;15.132;2023-04-19T08:07:21;7.35;;;2.50;;
20928;SDS011;21895;47.072;15.132;2023-04-19T08:09:48;5.35;;;2.72;;
20928;SDS011;21895;47.072;15.132;2023-04-19T08:12:14;4.68;;;2.45;;
20928;SDS011;21895;47.072;15.132;2023-04-19T08:15:00;4.32;;;2.42;;
20928;SDS011;21895;47.072;15.132;2023-04-19T08:17:54;3.15;;;2.05;;
20928;SDS011;21895;47.072;15.132;2023-04-19T08:20:20;3.08;;;2.17;;
20928;SDS011;21895;47.072;15.132;2023-04-19T08:22:47;3.28;;;2.40;;
20928;SDS011;21895;47.072;15.132;2023-04-19T08:25:14;4.53;;;2.50;;
20928;SDS011;21895;47.072;15.132;2023-04-19T08:27:41;5.47;;;2.50;;
20928;SDS011;21895;47.072;15.132;2023-04-19T08:30:07;8.10;;;2.37;;
20928;SDS011;21895;47.072;15.132;2023-04-19T08:32:35;7.55;;;2.58;;
20928;SDS011;21895;47.072;15.132;2023-04-19T08:35:02;6.00;;;2.78;;
20928;SDS011;21895;47.072;15.132;2023-04-19T08:37:29;2.58;;;2.15;;
20928;SDS011;21895;47.072;15.132;2023-04-19T08:39:56;5.72;;;2.80;;
20928;SDS011;21895;47.072;15.132;2023-04-19T08:42:23;9.50;;;3.05;;
20928;SDS011;21895;47.072;15.132;2023-04-19T08:45:01;6.70;;;2.87;;
20928;SDS011;21895;47.072;15.132;2023-04-19T08:47:35;3.83;;;2.62;;
20928;SDS011;21895;47.072;15.132;2023-04-19T08:50:21;6.55;;;2.67;;
20928;SDS011;21895;47.072;15.132;2023-04-19T08:53:01;5.90;;;2.60;;
20928;SDS011;21895;47.072;15.132;2023-04-19T08:55:48;6.15;;;2.75;;
20928;SDS011;21895;47.072;15.132;2023-04-19T08:58:18;7.78;;;3.15;;
20928;SDS011;21895;47.072;15.132;2023-04-19T09:01:05;3.05;;;2.28;;
20928;SDS011;21895;47.072;15.132;2023-04-19T09:03:35;13.55;;;2.58;;
20928;SDS011;21895;47.072;15.132;2023-04-19T09:06:28;7.35;;;2.65;;
20928;SDS011;21895;47.072;15.132;2023-04-19T09:09:19;3.70;;;2.47;;
20928;SDS011;21895;47.072;15.132;2023-04-19T09:11:51;7.10;;;2.70;;
20928;SDS011;21895;47.072;15.132;2023-04-19T09:14:18;3.45;;;2.47;;
20928;SDS011;21895;47.072;15.132;2023-04-19T09:16:47;3.47;;;2.50;;
20928;SDS011;21895;47.072;15.132;2023-04-19T09:19:16;3.45;;;2.75;;
20928;SDS011;21895;47.072;15.132;2023-04-19T09:21:49;7.35;;;3.15;;
20928;SDS011;21895;47.072;15.132;2023-04-19T09:24:18;2.87;;;2.40;;
20928;SDS011;21895;47.072;15.132;2023-04-19T09:26:53;3.55;;;2.20;;
20928;SDS011;21895;47.072;15.132;2023-04-19T09:29:22;5.43;;;2.55;;
20928;SDS011;21895;47.072;15.132;2023-04-19T09:31:55;11.25;;;2.92;;
20928;SDS011;21895;47.072;15.132;2023-04-19T09:34:23;5.20;;;3.12;;
20928;SDS011;21895;47.072;15.132;2023-04-19T09:36:50;4.90;;;2.67;;
20928;SDS011;21895;47.072;15.132;2023-04-19T09:39:32;4.50;;;2.93;;
20928;SDS011;21895;47.072;15.132;2023-04-19T09:42:00;6.47;;;3.10;;
20928;SDS011;21895;47.072;15.132;2023-04-19T09:44:27;7.65;;;3.00;;
20928;SDS011;21895;47.072;15.132;2023-04-19T09:46:56;6.03;;;2.90;;
20928;SDS011;21895;47.072;15.132;2023-04-19T09:49:23;7.00;;;2.92;;
20928;SDS011;21895;47.072;15.132;2023-04-19T09:52:06;5.37;;;3.05;;
20928;SDS011;21895;47.072;15.132;2023-04-19T09:54:38;5.85;;;3.03;;
20928;SDS011;21895;47.072;15.132;2023-04-19T09:57:06;5.45;;;2.75;;
20928;SDS011;21895;47.072;15.132;2023-04-19T09:59:35;7.72;;;2.92;;
20928;SDS011;21895;47.072;15.132;2023-04-19T10:02:04;4.15;;;2.72;;
20928;SDS011;21895;47.072;15.132;2023-04-19T10:04:33;4.75;;;3.28;;
20928;SDS011;21895;47.072;15.132;2023-04-19T10:07:36;5.87;;;3.05;;
20928;SDS011;21895;47.072;15.132;2023-04-19T10:10:03;4.87;;;3.28;;
20928;SDS011;21895;47.072;15.132;2023-04-19T10:12:46;4.43;;;3.33;;
20928;SDS011;21895;47.072;15.132;2023-04-19T10:15:44;4.60;;;2.78;;
20928;SDS011;21895;47.072;15.132;2023-04-19T10:18:18;5.90;;;3.33;;
20928;SDS011;21895;47.072;15.132;2023-04-19T10:20:54;5.65;;;3.20;;
20928;SDS011;21895;47.072;15.132;2023-04-19T10:23:31;5.43;;;3.20;;
20928;SDS011;21895;47.072;15.132;2023-04-19T10:25:59;5.97;;;3.62;;
20928;SDS011;21895;47.072;15.132;2023-04-19T10:28:28;8.38;;;3.95;;
20928;SDS011;21895;47.072;15.132;2023-04-19T10:31:02;5.03;;;3.65;;
20928;SDS011;21895;47.072;15.132;2023-04-19T10:33:30;5.00;;;3.20;;
20928;SDS011;21895;47.072;15.132;2023-04-19T10:36:01;5.40;;;3.35;;
20928;SDS011;21895;47.072;15.132;2023-04-19T10:42:04;4.68;;;2.97;;
20928;SDS011;21895;47.072;15.132;2023-04-19T10:44:30;18.40;;;3.47;;
20928;SDS011;21895;47.072;15.132;2023-04-19T10:46:57;8.75;;;3.35;;
20928;SDS011;21895;47.072;15.132;2023-04-19T10:49:25;8.90;;;4.28;;
20928;SDS011;21895;47.072;15.132;2023-04-19T10:51:53;6.07;;;3.87;;
20928;SDS011;21895;47.072;15.132;2023-04-19T10:54:28;8.03;;;3.87;;
20928;SDS011;21895;47.072;15.132;2023-04-19T10:56:59;7.28;;;3.50;;
20928;SDS011;21895;47.072;15.132;2023-04-19T10:59:29;8.65;;;3.42;;
20928;SDS011;21895;47.072;15.132;2023-04-19T11:02:01;5.78;;;3.40;;
20928;SDS011;21895;47.072;15.132;2023-04-19T11:05:01;4.12;;;2.85;;
20928;SDS011;21895;47.072;15.132;2023-04-19T11:07:34;5.50;;;2.97;;
20928;SDS011;21895;47.072;15.132;2023-04-19T11:10:03;4.87;;;3.15;;
20928;SDS011;21895;47.072;15.132;2023-04-19T11:12:30;5.93;;;3.47;;
20928;SDS011;21895;47.072;15.132;2023-04-19T11:14:56;8.18;;;3.47;;
20928;SDS011;21895;47.072;15.132;2023-04-19T11:17:28;8.05;;;3.62;;
20928;SDS011;21895;47.072;15.132;2023-04-19T11:19:57;5.00;;;3.60;;
20928;SDS011;21895;47.072;15.132;2023-04-19T11:22:34;7.35;;;3.83;;
20928;SDS011;21895;47.072;15.132;2023-04-19T11:25:11;10.77;;;3.33;;
20928;SDS011;21895;47.072;15.132;2023-04-19T11:27:44;5.60;;;3.95;;
20928;SDS011;21895;47.072;15.132;2023-04-19T11:30:21;4.72;;;3.47;;
20928;SDS011;21895;47.072;15.132;2023-04-19T11:32:55;8.90;;;3.53;;
20928;SDS011;21895;47.072;15.132;2023-04-19T11:35:23;7.45;;;3.70;;
20928;SDS011;21895;47.072;15.132;2023-04-19T11:37:52;18.23;;;3.58;;
20928;SDS011;21895;47.072;15.132;2023-04-19T11:40:21;4.78;;;3.05;;
20928;SDS011;21895;47.072;15.132;2023-04-19T11:43:00;20.83;;;4.03;;
20928;SDS011;21895;47.072;15.132;2023-04-19T11:45:33;7.30;;;3.65;;
20928;SDS011;21895;47.072;15.132;2023-04-19T11:48:05;9.10;;;3.10;;
20928;SDS011;21895;47.072;15.132;2023-04-19T11:50:42;6.73;;;3.40;;
20928;SDS011;21895;47.072;15.132;2023-04-19T11:53:19;8.02;;;3.50;;
20928;SDS011;21895;47.072;15.132;2023-04-19T11:55:52;5.47;;;3.75;;
20928;SDS011;21895;47.072;15.132;2023-04-19T11:58:22;8.40;;;3.35;;
20928;SDS011;21895;47.072;15.132;2023-04-19T12:00:56;5.60;;;3.08;;
20928;SDS011;21895;47.072;15.132;2023-04-19T12:03:34;6.45;;;3.50;;
20928;SDS011;21895;47.072;15.132;2023-04-19T12:06:19;26.80;;;3.75;;
20928;SDS011;21895;47.072;15.132;2023-04-19T12:08:52;8.52;;;3.67;;
20928;SDS011;21895;47.072;15.132;2023-04-19T12:11:22;6.53;;;3.40;;
20928;SDS011;21895;47.072;15.132;2023-04-19T12:14:06;4.68;;;3.60;;
20928;SDS011;21895;47.072;15.132;2023-04-19T12:16:34;17.10;;;3.62;;
20928;SDS011;21895;47.072;15.132;2023-04-19T12:19:13;9.80;;;3.67;;
20928;SDS011;21895;47.072;15.132;2023-04-19T12:21:43;6.87;;;3.97;;
20928;SDS011;21895;47.072;15.132;2023-04-19T12:24:13;4.67;;;3.47;;
20928;SDS011;21895;47.072;15.132;2023-04-19T12:26:53;5.03;;;3.33;;
20928;SDS011;21895;47.072;15.132;2023-04-19T12:29:22;5.50;;;3.45;;
20928;SDS011;21895;47.072;15.132;2023-04-19T12:31:48;6.73;;;4.30;;
20928;SDS011;21895;47.072;15.132;2023-04-19T12:34:15;7.10;;;3.85;;
20928;SDS011;21895;47.072;15.132;2023-04-19T12:36:42;6.90;;;3.87;;
20928;SDS011;21895;47.072;15.132;2023-04-19T12:39:08;5.12;;;3.45;;
20928;SDS011;21895;47.072;15.132;2023-04-19T12:41:35;6.28;;;4.18;;
20928;SDS011;21895;47.072;15.132;2023-04-19T12:44:01;9.70;;;3.25;;
20928;SDS011;21895;47.072;15.132;2023-04-19T12:46:28;4.03;;;3.50;;
20928;SDS011;21895;47.072;15.132;2023-04-19T12:48:54;10.40;;;3.45;;
20928;SDS011;21895;47.072;15.132;2023-04-19T12:51:21;8.75;;;3.17;;
20928;SDS011;21895;47.072;15.132;2023-04-19T12:53:48;7.53;;;4.20;;
20928;SDS011;21895;47.072;15.132;2023-04-19T12:56:15;12.55;;;4.60;;
20928;SDS011;21895;47.072;15.132;2023-04-19T12:58:42;7.00;;;4.00;;
20928;SDS011;21895;47.072;15.132;2023-04-19T13:01:09;7.78;;;4.53;;
20928;SDS011;21895;47.072;15.132;2023-04-19T13:03:35;7.55;;;5.15;;
20928;SDS011;21895;47.072;15.132;2023-04-19T13:06:02;7.12;;;4.47;;
20928;SDS011;21895;47.072;15.132;2023-04-19T13:08:30;7.37;;;4.12;;
20928;SDS011;21895;47.072;15.132;2023-04-19T13:11:10;7.12;;;4.78;;
20928;SDS011;21895;47.072;15.132;2023-04-19T13:13:37;8.00;;;4.77;;
20928;SDS011;21895;47.072;15.132;2023-04-19T13:16:04;10.32;;;5.07;;
20928;SDS011;21895;47.072;15.132;2023-04-19T13:18:32;8.07;;;4.50;;
20928;SDS011;21895;47.072;15.132;2023-04-19T13:20:58;10.10;;;5.10;;
20928;SDS011;21895;47.072;15.132;2023-04-19T13:23:25;8.45;;;5.05;;
20928;SDS011;21895;47.072;15.132;2023-04-19T13:25:51;7.57;;;5.00;;
20928;SDS011;21895;47.072;15.132;2023-04-19T13:28:18;8.05;;;5.07;;
20928;SDS011;21895;47.072;15.132;2023-04-19T13:30:44;7.95;;;4.80;;
20928;SDS011;21895;47.072;15.132;2023-04-19T13:33:11;8.25;;;5.12;;
20928;SDS011;21895;47.072;15.132;2023-04-19T13:35:37;9.85;;;5.15;;
20928;SDS011;21895;47.072;15.132;2023-04-19T13:38:04;7.97;;;5.10;;
20928;SDS011;21895;47.072;15.132;2023-04-19T13:40:30;10.53;;;4.67;;
20928;SDS011;21895;47.072;15.132;2023-04-19T13:42:57;9.05;;;4.95;;
20928;SDS011;21895;47.072;15.132;2023-04-19T13:45:23;9.38;;;5.55;;
20928;SDS011;21895;47.072;15.132;2023-04-19T13:47:50;9.73;;;5.20;;
20928;SDS011;21895;47.072;15.132;2023-04-19T13:50:16;8.60;;;4.93;;
20928;SDS011;21895;47.072;15.132;2023-04-19T13:52:43;9.53;;;5.33;;
20928;SDS011;21895;47.072;15.132;2023-04-19T13:55:10;9.30;;;5.45;;
20928;SDS011;21895;47.072;15.132;2023-04-19T13:57:36;9.63;;;5.80;;
20928;SDS011;21895;47.072;15.132;2023-04-19T14:00:03;10.03;;;5.67;;
20928;SDS011;21895;47.072;15.132;2023-04-19T14:02:31;14.00;;;5.95;;
20928;SDS011;21895;47.072;15.132;2023-04-19T14:04:58;11.30;;;6.05;;
20928;SDS011;21895;47.072;15.132;2023-04-19T14:07:24;11.20;;;5.25;;
20928;SDS011;21895;47.072;15.132;2023-04-19T14:09:51;10.93;;;5.90;;
20928;SDS011;21895;47.072;15.132;2023-04-19T14:12:17;15.63;;;5.40;;
20928;SDS011;21895;47.072;15.132;2023-04-19T14:14:44;9.45;;;5.37;;
20928;SDS011;21895;47.072;15.132;2023-04-19T14:17:11;9.33;;;5.40;;
20928;SDS011;21895;47.072;15.132;2023-04-19T14:19:37;8.67;;;4.87;;
20928;SDS011;21895;47.072;15.132;2023-04-19T14:22:04;8.87;;;4.83;;
20928;SDS011;21895;47.072;15.132;2023-04-19T14:24:30;9.85;;;4.60;;
20928;SDS011;21895;47.072;15.132;2023-04-19T14:26:57;16.40;;;4.70;;
20928;SDS011;21895;47.072;15.132;2023-04-19T14:29:36;6.93;;;4.70;;
20928;SDS011;21895;47.072;15.132;2023-04-19T14:32:04;7.83;;;4.80;;
20928;SDS011;21895;47.072;15.132;2023-04-19T14:34:50;10.52;;;4.50;;
20928;SDS011;21895;47.072;15.132;2023-04-19T14:37:17;9.30;;;4.10;;
20928;SDS011;21895;47.072;15.132;2023-04-19T14:39:44;10.77;;;5.07;;
20928;SDS011;21895;47.072;15.132;2023-04-19T14:42:10;9.02;;;4.95;;
20928;SDS011;21895;47.072;15.132;2023-04-19T14:44:37;7.82;;;4.57;;
20928;SDS011;21895;47.072;15.132;2023-04-19T14:47:06;10.13;;;5.33;;